createdAt,value
2022-09-14T00:00:24.943Z,99.90
2022-09-14T00:02:54.927Z,99.90
2022-09-14T00:05:24.229Z,99.90
2022-09-14T00:07:54.230Z,99.90
2022-09-14T00:10:24.995Z,99.90
2022-09-14T00:12:55.383Z,99.90
2022-09-14T00:15:25.709Z,99.90
2022-09-14T00:17:55.553Z,99.90
2022-09-14T00:20:25.410Z,99.90
2022-09-14T00:22:55.283Z,99.90
2022-09-14T00:25:25.170Z,99.90
2022-09-14T00:27:56.495Z,99.90
2022-09-14T00:30:26.698Z,99.90
2022-09-14T00:32:56.724Z,99.90
2022-09-14T00:35:26.015Z,99.90
2022-09-14T00:37:56.013Z,99.90
2022-09-14T00:40:25.254Z,99.90
2022-09-14T00:42:55.215Z,99.90
2022-09-14T00:45:27.583Z,99.90
2022-09-14T00:47:58.437Z,99.90
2022-09-14T00:50:28.392Z,99.90
2022-09-14T00:52:58.561Z,99.90
2022-09-14T00:55:28.798Z,99.90
2022-09-14T00:57:58.797Z,99.90
2022-09-14T01:00:29.279Z,99.90
2022-09-14T01:02:59.615Z,99.90
2022-09-14T01:05:42.822Z,99.90
2022-09-14T01:08:35.273Z,99.90
2022-09-14T01:11:33.151Z,99.90
2022-09-14T01:14:22.668Z,99.90
2022-09-14T01:17:17.387Z,99.90
2022-09-14T01:20:16.708Z,99.90
2022-09-14T01:23:00.475Z,99.90
2022-09-14T01:26:08.596Z,99.90
2022-09-14T01:29:09.861Z,99.90
2022-09-14T01:32:03.099Z,99.90
2022-09-14T01:34:42.730Z,99.90
2022-09-14T01:37:35.545Z,99.70
2022-09-14T01:40:20.195Z,99.40
2022-09-14T01:42:57.296Z,99.40
2022-09-14T01:45:30.561Z,99.30
2022-09-14T01:48:04.976Z,99.10
2022-09-14T01:50:46.949Z,98.70
2022-09-14T01:53:41.711Z,98.80
2022-09-14T01:56:23.870Z,98.50
2022-09-14T01:59:02.258Z,98.20
2022-09-14T02:01:45.521Z,98.40
2022-09-14T02:04:24.957Z,97.90
2022-09-14T02:06:54.957Z,97.80
2022-09-14T02:09:28.430Z,98.00
2022-09-14T02:12:02.552Z,97.80
2022-09-14T02:14:33.549Z,97.20
2022-09-14T02:17:04.443Z,96.90
2022-09-14T02:19:39.559Z,96.50
2022-09-14T02:22:09.511Z,96.40
2022-09-14T02:24:39.660Z,96.70
2022-09-14T02:27:10.306Z,97.20
2022-09-14T02:29:40.533Z,96.80
2022-09-14T02:32:46.117Z,97.30
2022-09-14T02:35:40.232Z,96.80
2022-09-14T02:38:39.440Z,97.10
2022-09-14T02:41:38.944Z,97.00
2022-09-14T02:44:37.343Z,97.00
2022-09-14T02:47:27.547Z,95.30
2022-09-14T02:50:20.012Z,95.50
2022-09-14T02:53:16.023Z,94.90
2022-09-14T02:55:53.485Z,95.20
2022-09-14T02:58:23.504Z,96.30
2022-09-14T03:00:53.611Z,96.50
2022-09-14T03:03:24.368Z,96.10
2022-09-14T03:05:54.468Z,95.70
2022-09-14T03:08:24.523Z,95.70
2022-09-14T03:10:54.439Z,95.40
2022-09-14T03:13:24.637Z,95.60
2022-09-14T03:15:55.281Z,95.40
2022-09-14T03:18:25.313Z,95.50
2022-09-14T03:20:55.149Z,96.10
2022-09-14T03:23:24.382Z,94.70
2022-09-14T03:25:54.585Z,95.00
2022-09-14T03:28:24.417Z,95.10
2022-09-14T03:30:54.598Z,95.10
2022-09-14T03:33:24.463Z,95.30
2022-09-14T03:35:54.267Z,95.00
2022-09-14T03:38:24.275Z,95.50
2022-09-14T03:40:54.782Z,95.40
2022-09-14T03:43:25.564Z,95.50
2022-09-14T03:45:55.791Z,94.80
2022-09-14T03:48:25.887Z,95.10
2022-09-14T03:50:55.773Z,93.50
2022-09-14T03:53:25.601Z,93.80
2022-09-14T03:55:55.546Z,93.20
2022-09-14T03:58:25.882Z,93.10
2022-09-14T04:00:55.848Z,92.80
2022-09-14T04:03:25.839Z,92.90
2022-09-14T04:05:59.195Z,93.80
2022-09-14T04:08:29.379Z,92.30
2022-09-14T04:10:59.235Z,93.30
2022-09-14T04:13:29.261Z,92.70
2022-09-14T04:16:01.743Z,93.70
2022-09-14T04:18:31.753Z,93.50
2022-09-14T04:21:08.239Z,93.50
2022-09-14T04:23:56.967Z,91.80
2022-09-14T04:26:31.680Z,92.10
2022-09-14T04:29:04.734Z,91.30
2022-09-14T04:31:35.531Z,91.30
2022-09-14T04:34:05.797Z,91.00
2022-09-14T04:36:35.853Z,90.80
2022-09-14T04:39:08.714Z,91.70
2022-09-14T04:41:38.870Z,91.80
2022-09-14T04:44:08.852Z,93.10
2022-09-14T04:46:46.116Z,91.80
2022-09-14T04:49:20.460Z,92.10
2022-09-14T04:51:50.712Z,93.00
2022-09-14T04:54:21.454Z,93.20
2022-09-14T04:56:51.647Z,93.60
2022-09-14T04:59:21.617Z,92.60
2022-09-14T05:01:52.031Z,92.70
2022-09-14T05:04:22.059Z,93.20
2022-09-14T05:06:52.871Z,93.10
2022-09-14T05:09:23.330Z,92.60
2022-09-14T05:11:53.513Z,92.80
2022-09-14T05:14:23.430Z,92.20
2022-09-14T05:16:53.558Z,92.40
2022-09-14T05:19:23.422Z,91.20
2022-09-14T05:21:53.300Z,91.50
2022-09-14T05:24:23.732Z,91.50
2022-09-14T05:26:59.565Z,92.20
2022-09-14T05:29:31.621Z,92.90
2022-09-14T05:32:02.836Z,92.70
2022-09-14T05:34:32.799Z,92.90
2022-09-14T05:37:02.717Z,92.20
2022-09-14T05:39:33.033Z,92.20
2022-09-14T05:42:02.912Z,92.20
2022-09-14T05:44:32.817Z,92.20
2022-09-14T05:47:02.707Z,92.40
2022-09-14T05:49:33.346Z,92.60
2022-09-14T05:52:03.588Z,92.50
2022-09-14T05:54:33.448Z,92.20
2022-09-14T05:57:03.366Z,92.00
2022-09-14T05:59:33.368Z,92.20
2022-09-14T06:02:03.572Z,91.80
2022-09-14T06:04:34.676Z,91.90
2022-09-14T06:07:18.031Z,91.90
2022-09-14T06:09:48.907Z,91.90
2022-09-14T06:12:18.778Z,91.80
2022-09-14T06:14:49.102Z,92.00
2022-09-14T06:17:19.711Z,92.10
2022-09-14T06:19:49.775Z,91.70
2022-09-14T06:22:19.520Z,91.60
2022-09-14T06:24:49.368Z,91.90
2022-09-14T06:27:19.336Z,91.90
2022-09-14T06:29:53.667Z,92.20
2022-09-14T06:32:25.067Z,92.60
2022-09-14T06:34:54.867Z,92.50
2022-09-14T06:37:24.691Z,93.00
2022-09-14T06:39:54.595Z,92.70
2022-09-14T06:42:24.447Z,92.70
2022-09-14T06:44:54.283Z,92.80
2022-09-14T06:47:25.524Z,92.80
2022-09-14T06:49:55.492Z,92.80
2022-09-14T06:52:25.320Z,92.60
2022-09-14T06:54:55.154Z,92.70
2022-09-14T06:57:25.375Z,92.90
2022-09-14T06:59:55.246Z,92.90
2022-09-14T07:02:25.276Z,92.70
2022-09-14T07:04:55.226Z,93.00
2022-09-14T07:07:25.108Z,93.10
2022-09-14T07:09:55.175Z,92.70
2022-09-14T07:12:25.050Z,92.70
2022-09-14T07:14:54.955Z,92.80
2022-09-14T07:17:25.147Z,93.00
2022-09-14T07:19:55.019Z,93.10
2022-09-14T07:22:24.985Z,93.20
2022-09-14T07:24:55.669Z,93.40
2022-09-14T07:27:25.450Z,93.40
2022-09-14T07:29:55.820Z,93.50
2022-09-14T07:32:25.678Z,93.50
2022-09-14T07:34:55.567Z,93.50
2022-09-14T07:37:25.992Z,93.40
2022-09-14T07:39:56.117Z,93.50
2022-09-14T07:42:26.035Z,93.90
2022-09-14T07:44:55.902Z,93.80
2022-09-14T07:47:25.746Z,93.80
2022-09-14T07:49:55.839Z,93.50
2022-09-14T07:52:25.860Z,93.60
2022-09-14T07:54:55.710Z,93.80
2022-09-14T07:57:45.520Z,94.00
2022-09-14T08:00:19.941Z,94.00
2022-09-14T08:02:54.808Z,93.80
2022-09-14T08:05:25.773Z,94.00
2022-09-14T08:07:57.715Z,94.10
2022-09-14T08:10:28.475Z,93.90
2022-09-14T08:12:58.837Z,93.70
2022-09-14T08:15:30.294Z,93.80
2022-09-14T08:18:03.218Z,93.80
2022-09-14T08:20:34.031Z,93.60
2022-09-14T08:23:04.222Z,93.70
2022-09-14T08:25:37.677Z,93.60
2022-09-14T08:28:07.863Z,93.60
2022-09-14T08:30:37.880Z,93.90
2022-09-14T08:33:31.596Z,93.90
2022-09-14T08:36:29.783Z,93.60
2022-09-14T08:39:24.090Z,93.10
2022-09-14T08:42:03.675Z,92.60
2022-09-14T08:44:42.524Z,92.20
2022-09-14T08:47:56.394Z,92.30
2022-09-14T08:50:27.152Z,92.40
2022-09-14T08:52:58.198Z,91.40
2022-09-14T08:55:50.885Z,91.90
2022-09-14T08:58:41.433Z,91.10
2022-09-14T09:01:37.988Z,91.40
2022-09-14T09:04:39.250Z,91.40
2022-09-14T09:07:25.924Z,91.20
2022-09-14T09:09:58.698Z,91.60
2022-09-14T09:12:41.715Z,91.40
2022-09-14T09:15:38.757Z,91.90
2022-09-14T09:18:39.262Z,92.10
2022-09-14T09:21:15.958Z,92.30
2022-09-14T09:23:46.573Z,92.80
2022-09-14T09:26:58.872Z,93.00
2022-09-14T09:29:45.490Z,92.90
2022-09-14T09:35:33.564Z,93.20
2022-09-14T09:38:04.306Z,93.30
2022-09-14T09:40:41.309Z,93.30
2022-09-14T09:43:45.313Z,93.80
2022-09-14T09:46:14.248Z,93.90
2022-09-14T09:48:47.196Z,94.50
2022-09-14T09:51:28.747Z,94.20
2022-09-14T09:54:12.369Z,94.30
2022-09-14T09:56:53.863Z,94.40
2022-09-14T09:59:39.110Z,94.10
2022-09-14T10:02:30.935Z,93.80
2022-09-14T10:05:30.689Z,93.80
2022-09-14T10:08:08.033Z,93.60
2022-09-14T10:10:46.935Z,93.70
2022-09-14T10:13:43.159Z,93.60
2022-09-14T10:16:40.669Z,93.50
2022-09-14T10:19:27.629Z,93.10
2022-09-14T10:22:24.262Z,92.90
2022-09-14T10:25:29.866Z,92.30
2022-09-14T10:28:24.439Z,93.10
2022-09-14T10:31:17.504Z,92.30
2022-09-14T10:33:55.986Z,92.90
2022-09-14T10:36:52.042Z,93.70
2022-09-14T10:39:52.970Z,93.80
2022-09-14T10:42:44.894Z,93.90
2022-09-14T10:45:40.790Z,94.00
2022-09-14T10:48:45.272Z,94.20
2022-09-14T10:51:47.845Z,94.00
2022-09-14T10:54:49.540Z,94.50
2022-09-14T10:57:49.575Z,94.20
2022-09-14T11:00:22.607Z,94.30
2022-09-14T11:03:25.722Z,94.40
2022-09-14T11:06:13.880Z,94.60
2022-09-14T11:08:50.643Z,94.50
2022-09-14T11:11:40.973Z,94.80
2022-09-14T11:14:37.605Z,94.50
2022-09-14T11:17:31.354Z,94.60
2022-09-14T11:20:32.433Z,94.30
2022-09-14T11:23:34.492Z,94.20
2022-09-14T11:26:25.257Z,94.30
2022-09-14T11:29:03.086Z,94.40
2022-09-14T11:31:59.011Z,94.80
2022-09-14T11:34:44.412Z,95.00
2022-09-14T11:37:19.861Z,95.30
2022-09-14T11:40:12.096Z,95.50
2022-09-14T11:43:04.353Z,95.80
2022-09-14T11:45:52.658Z,96.10
2022-09-14T11:48:44.947Z,95.80
2022-09-14T11:51:26.680Z,95.80
2022-09-14T11:53:56.809Z,95.90
2022-09-14T11:56:30.800Z,95.70
2022-09-14T11:59:05.937Z,95.80
2022-09-14T12:01:40.099Z,96.00
2022-09-14T12:04:18.853Z,96.10
2022-09-14T12:06:52.484Z,96.10
2022-09-14T12:09:42.292Z,96.10
2022-09-14T12:12:30.472Z,96.20
2022-09-14T12:15:04.502Z,96.30
2022-09-14T12:17:40.758Z,96.20
2022-09-14T12:20:45.293Z,96.20
2022-09-14T12:23:33.946Z,96.20
2022-09-14T12:26:30.451Z,96.30
2022-09-14T12:29:07.681Z,96.30
2022-09-14T12:32:04.682Z,96.30
2022-09-14T12:34:36.132Z,96.50
2022-09-14T12:37:27.863Z,96.60
2022-09-14T12:40:31.216Z,96.50
2022-09-14T12:43:31.241Z,96.70
2022-09-14T12:46:31.791Z,96.70
2022-09-14T12:49:17.400Z,96.60
2022-09-14T12:51:51.624Z,96.60
2022-09-14T12:54:42.638Z,96.60
2022-09-14T12:57:37.563Z,96.70
2022-09-14T13:00:19.031Z,96.60
2022-09-14T13:03:22.019Z,96.40
2022-09-14T13:05:53.202Z,96.40
2022-09-14T13:08:26.400Z,96.50
2022-09-14T13:10:56.620Z,96.70
2022-09-14T13:13:33.271Z,96.60
2022-09-14T13:16:06.882Z,96.70
2022-09-14T13:18:40.010Z,96.80
2022-09-14T13:21:26.818Z,96.90
2022-09-14T13:23:56.707Z,96.90
2022-09-14T13:26:28.853Z,97.20
2022-09-14T13:29:00.848Z,97.20
2022-09-14T13:31:37.780Z,97.40
2022-09-14T13:34:08.574Z,97.20
2022-09-14T13:36:45.321Z,97.70
2022-09-14T13:39:29.309Z,97.60
2022-09-14T13:42:00.721Z,98.00
2022-09-14T13:44:35.682Z,98.00
2022-09-14T13:47:07.970Z,97.90
2022-09-14T13:49:38.610Z,97.90
2022-09-14T13:52:49.800Z,97.90
2022-09-14T13:55:29.397Z,97.70
2022-09-14T13:58:16.593Z,97.80
2022-09-14T14:01:03.799Z,97.80
2022-09-14T14:03:51.069Z,98.00
2022-09-14T14:06:33.426Z,98.40
2022-09-14T14:09:07.630Z,98.70
2022-09-14T14:11:57.398Z,98.70
2022-09-14T14:14:32.466Z,99.10
2022-09-14T14:17:24.376Z,98.90
2022-09-14T14:19:57.966Z,99.00
2022-09-14T14:22:34.861Z,99.20
2022-09-14T14:25:21.836Z,99.40
2022-09-14T14:27:51.884Z,99.60
2022-09-14T14:30:25.062Z,99.70
2022-09-14T14:32:56.421Z,99.90
2022-09-14T14:35:29.334Z,99.90
2022-09-14T14:38:00.667Z,99.90
2022-09-14T14:40:30.993Z,99.90
2022-09-14T14:43:04.493Z,99.90
2022-09-14T14:45:36.584Z,99.90
2022-09-14T14:48:07.368Z,99.90
2022-09-14T14:50:37.950Z,99.90
2022-09-14T14:53:08.308Z,99.90
2022-09-14T14:55:39.463Z,99.90
2022-09-14T14:58:15.591Z,99.90
2022-09-14T15:00:46.462Z,99.90
2022-09-14T15:03:17.150Z,99.90
2022-09-14T15:05:48.865Z,99.90
2022-09-14T15:08:21.757Z,99.90
2022-09-14T15:10:57.524Z,99.90
2022-09-14T15:13:27.579Z,99.90
2022-09-14T15:15:58.619Z,99.90
2022-09-14T15:18:28.547Z,99.90
2022-09-14T15:20:57.818Z,99.90
2022-09-14T15:23:27.881Z,99.90
2022-09-14T15:25:57.152Z,99.90
2022-09-14T15:28:27.257Z,99.90
2022-09-14T15:30:59.052Z,99.90
2022-09-14T15:33:29.042Z,99.90
2022-09-14T15:35:59.057Z,99.90
2022-09-14T15:38:29.216Z,99.90
2022-09-14T15:40:59.159Z,99.90
2022-09-14T15:43:28.395Z,99.90
2022-09-14T15:46:04.209Z,99.90
2022-09-14T15:48:34.200Z,99.90
2022-09-14T15:51:12.476Z,99.90
2022-09-14T15:53:42.585Z,99.90
2022-09-14T15:56:14.256Z,99.90
2022-09-14T15:58:47.909Z,99.90
2022-09-14T16:01:20.138Z,99.90
2022-09-14T16:03:50.169Z,99.90
2022-09-14T16:06:19.408Z,99.90
2022-09-14T16:08:49.412Z,99.90
2022-09-14T16:11:18.640Z,99.90
2022-09-14T16:13:50.172Z,99.90
2022-09-14T16:16:21.669Z,99.90
2022-09-14T16:18:52.843Z,99.90
2022-09-14T16:21:26.365Z,99.90
2022-09-14T16:23:58.717Z,99.90
2022-09-14T16:26:32.193Z,99.90
2022-09-14T16:29:02.618Z,99.90
2022-09-14T16:31:35.545Z,99.90
2022-09-14T16:34:10.921Z,99.90
2022-09-14T16:36:42.766Z,99.90
2022-09-14T16:39:15.505Z,99.90
2022-09-14T16:41:45.811Z,99.90
2022-09-14T16:44:20.388Z,99.90
2022-09-14T16:46:50.820Z,99.90
2022-09-14T16:49:28.637Z,99.90
2022-09-14T16:52:02.175Z,99.90
2022-09-14T16:54:33.460Z,99.90
2022-09-14T16:57:03.431Z,99.90
2022-09-14T16:59:32.735Z,99.90
2022-09-14T17:02:02.951Z,99.90
2022-09-14T17:04:32.938Z,99.90
2022-09-14T17:07:02.270Z,99.90
2022-09-14T17:09:35.398Z,99.90
2022-09-14T17:12:05.721Z,99.90
2022-09-14T17:14:37.310Z,99.90
2022-09-14T17:17:07.167Z,99.90
2022-09-14T17:19:39.506Z,99.90
2022-09-14T17:22:13.040Z,99.90
2022-09-14T17:24:43.102Z,99.90
2022-09-14T17:27:12.701Z,99.90
2022-09-14T17:29:42.602Z,99.90
2022-09-14T17:32:14.915Z,99.90
2022-09-14T17:34:45.031Z,99.90
2022-09-14T17:37:14.913Z,99.90
2022-09-14T17:39:44.903Z,99.90
2022-09-14T17:42:14.210Z,99.90
2022-09-14T17:44:44.671Z,99.90
2022-09-14T17:47:14.648Z,99.90
2022-09-14T17:49:43.967Z,99.90
2022-09-14T17:52:13.901Z,99.90
2022-09-14T17:54:46.824Z,99.90
2022-09-14T17:57:16.765Z,99.90
2022-09-14T17:59:47.271Z,99.90
2022-09-14T18:02:17.255Z,99.90
2022-09-14T18:04:48.664Z,99.90
2022-09-14T18:07:18.691Z,99.90
2022-09-14T18:09:47.976Z,99.90
2022-09-14T18:12:19.416Z,99.90
2022-09-14T18:14:49.686Z,99.90
2022-09-14T18:17:19.630Z,99.90
2022-09-14T18:19:49.076Z,99.90
2022-09-14T18:22:19.542Z,99.90
2022-09-14T18:24:49.351Z,99.90
2022-09-14T18:27:19.435Z,99.90
2022-09-14T18:29:49.385Z,99.90
2022-09-14T18:32:18.690Z,99.90
2022-09-14T18:34:48.519Z,99.90
2022-09-14T18:37:18.415Z,99.90
2022-09-14T18:39:48.453Z,99.90
2022-09-14T18:42:17.857Z,99.90
2022-09-14T18:44:47.768Z,99.90
2022-09-14T18:47:23.259Z,99.90
2022-09-14T18:49:53.302Z,99.90
2022-09-14T18:52:22.570Z,99.90
2022-09-14T18:54:52.557Z,99.90
2022-09-14T18:57:21.933Z,99.90
2022-09-14T18:59:51.915Z,99.90
2022-09-14T19:02:21.445Z,99.90
2022-09-14T19:04:51.467Z,99.90
2022-09-14T19:07:21.484Z,99.90
2022-09-14T19:09:50.766Z,99.90
2022-09-14T19:12:20.744Z,99.90
2022-09-14T19:14:50.642Z,99.90
2022-09-14T19:17:20.992Z,99.90
2022-09-14T19:19:50.942Z,99.90
2022-09-14T19:22:20.864Z,99.90
2022-09-14T19:24:50.780Z,99.90
2022-09-14T19:27:20.644Z,99.90
2022-09-14T19:29:50.921Z,99.90
2022-09-14T19:32:21.090Z,99.90
2022-09-14T19:34:51.259Z,99.90
2022-09-14T19:37:21.154Z,99.90
2022-09-14T19:39:51.382Z,99.90
2022-09-14T19:42:24.297Z,99.90
2022-09-14T19:44:54.631Z,99.90
2022-09-14T19:47:24.765Z,99.90
2022-09-14T19:49:54.017Z,99.90
2022-09-14T19:52:23.970Z,99.90
2022-09-14T19:54:53.897Z,99.90
2022-09-14T19:57:23.742Z,99.90
2022-09-14T19:59:53.733Z,99.90
2022-09-14T20:02:23.189Z,99.90
2022-09-14T20:04:53.229Z,99.90
2022-09-14T20:07:23.295Z,99.90
2022-09-14T20:09:52.503Z,99.90
2022-09-14T20:12:22.426Z,99.90
2022-09-14T20:14:52.393Z,99.90
2022-09-14T20:17:23.681Z,99.90
2022-09-14T20:19:53.660Z,99.90
2022-09-14T20:22:23.004Z,99.90
2022-09-14T20:24:52.838Z,99.90
2022-09-14T20:27:22.879Z,99.90
2022-09-14T20:29:53.032Z,99.90
2022-09-14T20:32:22.420Z,99.90
2022-09-14T20:34:52.528Z,99.90
2022-09-14T20:37:22.511Z,99.90
2022-09-14T20:39:52.033Z,99.90
2022-09-14T20:42:22.234Z,99.90
2022-09-14T20:44:52.143Z,99.90
2022-09-14T20:47:22.427Z,99.90
2022-09-14T20:49:52.400Z,99.90
2022-09-14T20:52:22.245Z,99.90
2022-09-14T20:54:52.265Z,99.90
2022-09-14T20:57:21.545Z,99.90
2022-09-14T20:59:51.550Z,99.90
2022-09-14T21:02:21.465Z,99.90
2022-09-14T21:04:51.538Z,99.90
2022-09-14T21:07:20.820Z,99.90
2022-09-14T21:09:51.068Z,99.90
2022-09-14T21:12:21.086Z,99.90
2022-09-14T21:14:50.768Z,99.90
2022-09-14T21:17:20.617Z,99.90
2022-09-14T21:19:50.798Z,99.90
2022-09-14T21:22:21.049Z,99.90
2022-09-14T21:24:50.971Z,99.90
2022-09-14T21:27:20.912Z,99.90
2022-09-14T21:29:52.799Z,99.90
2022-09-14T21:32:22.798Z,99.90
2022-09-14T21:34:52.148Z,99.90
2022-09-14T21:37:22.129Z,99.90
2022-09-14T21:39:52.320Z,99.90
2022-09-14T21:42:22.210Z,99.90
2022-09-14T21:44:52.237Z,99.90
2022-09-14T21:47:22.162Z,99.90
2022-09-14T21:49:52.323Z,99.90
2022-09-14T21:52:22.331Z,99.90
2022-09-14T21:54:51.604Z,99.90
2022-09-14T21:57:21.522Z,99.90
2022-09-14T21:59:51.360Z,99.90
2022-09-14T22:02:21.259Z,99.90
2022-09-14T22:04:51.306Z,99.90
2022-09-14T22:07:20.682Z,99.90
2022-09-14T22:09:50.768Z,99.90
2022-09-14T22:12:20.143Z,99.90
2022-09-14T22:14:54.246Z,99.90
2022-09-14T22:17:24.144Z,99.90
2022-09-14T22:19:56.666Z,99.90
2022-09-14T22:22:26.482Z,99.90
2022-09-14T22:24:56.670Z,99.90
2022-09-14T22:27:26.658Z,99.90
2022-09-14T22:29:56.004Z,99.90
2022-09-14T22:32:26.067Z,99.90
2022-09-14T22:34:55.334Z,99.90
2022-09-14T22:37:25.213Z,99.90
2022-09-14T22:39:55.558Z,99.90
2022-09-14T22:42:25.783Z,99.90
2022-09-14T22:44:55.938Z,99.90
2022-09-14T22:47:26.043Z,99.90
2022-09-14T22:50:02.771Z,99.90
2022-09-14T22:52:32.682Z,99.90
2022-09-14T22:55:02.780Z,99.90
2022-09-14T22:57:31.993Z,99.90
2022-09-14T23:00:01.815Z,99.90
2022-09-14T23:02:31.931Z,99.90
2022-09-14T23:05:01.909Z,99.90
2022-09-14T23:07:33.730Z,99.90
2022-09-14T23:10:03.685Z,99.90
2022-09-14T23:12:33.553Z,99.90
2022-09-14T23:15:03.500Z,99.90
2022-09-14T23:17:33.941Z,99.90
2022-09-14T23:20:04.501Z,99.90
2022-09-14T23:22:34.623Z,99.90
2022-09-14T23:25:04.970Z,99.90
2022-09-14T23:27:34.975Z,99.90
2022-09-14T23:30:04.263Z,99.90
2022-09-14T23:32:34.518Z,99.90
2022-09-14T23:35:04.556Z,99.90
2022-09-14T23:37:33.814Z,99.90
2022-09-14T23:40:04.064Z,99.90
2022-09-14T23:42:34.112Z,99.90
2022-09-14T23:45:03.404Z,99.90
2022-09-14T23:47:33.504Z,99.90
2022-09-14T23:50:02.701Z,99.90
2022-09-14T23:52:33.536Z,99.90
2022-09-14T23:55:03.595Z,99.90
2022-09-14T23:57:32.985Z,99.90
